KFYJ

Middle Peninsula Regional Airport

West Point, Virginia, USA
METAR KFYJ 241955Z AUTO 00000KT 10SM BKN042 OVC048 23/16 A3007 RMK AO2 T02300155
Observed Flight Rules
Feb-24 @ 19:55 UTC (20 minutes ago) Visual Flight Rules
Wind Visibility Clouds
Calm 10 miles
  • Broken at 4,200' AGL
  • Overcast at 4,800' AGL
Temperatures Readings
Current 23°C / 73°F
Dewpoint 16°C / 61°F
Humidity 65%
Altimeter 30.07" Hg
Pressure 1018 hPa
Elevation 7
METAR KFYJ 241955Z AUTO 00000KT 10SM BKN042 OVC048 23/16 A3007 RMK AO2 T02300155
Observed Flight Rules
Feb-24 @ 19:55 UTC
(20 minutes ago)
VFR
Wind Visibility
Calm 10 miles
Clouds
  • Broken at 4,200' AGL
  • Overcast at 4,800' AGL
Temperature Dewpoint
23°C / 73°F 16°C / 61°F
Humidity Altimeter Pressure
65% 30.07" Hg 1018 hPa